sensor_id;sensor_type;location;lat;lon;timestamp;pressure;altitude;pressure_sealevel;temperature;humidity
11049;BME280;5577;42.706;23.160;2022-08-01T00:02:27;94084.41;;;19.28;100.00
11049;BME280;5577;42.706;23.160;2022-08-01T00:05:12;94087.13;;;19.21;100.00
11049;BME280;5577;42.706;23.160;2022-08-01T00:07:56;94081.84;;;19.14;100.00
11049;BME280;5577;42.706;23.160;2022-08-01T00:10:40;94078.75;;;19.16;100.00
11049;BME280;5577;42.706;23.160;2022-08-01T00:13:24;94079.91;;;19.18;100.00
11049;BME280;5577;42.706;23.160;2022-08-01T00:16:08;94077.53;;;19.24;100.00
11049;BME280;5577;42.706;23.160;2022-08-01T00:18:52;94076.00;;;19.23;100.00
11049;BME280;5577;42.706;23.160;2022-08-01T00:21:36;94080.81;;;19.05;100.00
11049;BME280;5577;42.706;23.160;2022-08-01T00:24:20;94073.22;;;19.00;100.00
11049;BME280;5577;42.706;23.160;2022-08-01T00:27:04;94025.63;;;18.70;100.00
11049;BME280;5577;42.706;23.160;2022-08-01T00:29:48;94038.56;;;18.79;100.00
11049;BME280;5577;42.706;23.160;2022-08-01T00:32:32;94070.16;;;18.98;100.00
11049;BME280;5577;42.706;23.160;2022-08-01T00:35:16;94069.88;;;18.89;100.00
11049;BME280;5577;42.706;23.160;2022-08-01T00:38:00;94066.88;;;18.80;100.00
11049;BME280;5577;42.706;23.160;2022-08-01T00:40:44;94070.09;;;18.68;100.00
11049;BME280;5577;42.706;23.160;2022-08-01T00:43:28;94070.94;;;18.58;100.00
11049;BME280;5577;42.706;23.160;2022-08-01T00:46:12;94069.06;;;18.55;100.00
11049;BME280;5577;42.706;23.160;2022-08-01T00:48:57;94068.31;;;18.51;100.00
11049;BME280;5577;42.706;23.160;2022-08-01T00:51:41;94070.72;;;18.35;100.00
11049;BME280;5577;42.706;23.160;2022-08-01T00:54:26;94052.56;;;18.09;100.00
11049;BME280;5577;42.706;23.160;2022-08-01T00:57:11;94064.00;;;18.13;100.00
11049;BME280;5577;42.706;23.160;2022-08-01T00:59:56;94059.88;;;18.05;100.00
11049;BME280;5577;42.706;23.160;2022-08-01T01:02:40;94057.63;;;17.93;100.00
11049;BME280;5577;42.706;23.160;2022-08-01T01:05:24;94050.56;;;17.62;100.00
11049;BME280;5577;42.706;23.160;2022-08-01T01:08:14;94064.28;;;17.71;100.00
11049;BME280;5577;42.706;23.160;2022-08-01T01:11:10;94054.38;;;17.68;100.00
11049;BME280;5577;42.706;23.160;2022-08-01T01:14:01;94059.41;;;17.59;100.00
11049;BME280;5577;42.706;23.160;2022-08-01T01:16:49;94048.34;;;17.50;100.00
11049;BME280;5577;42.706;23.160;2022-08-01T01:19:39;94053.75;;;17.43;100.00
11049;BME280;5577;42.706;23.160;2022-08-01T01:22:29;94054.16;;;17.27;100.00
11049;BME280;5577;42.706;23.160;2022-08-01T01:28:39;94043.50;;;17.24;100.00
11049;BME280;5577;42.706;23.160;2022-08-01T01:31:25;94039.66;;;17.21;100.00
11049;BME280;5577;42.706;23.160;2022-08-01T01:34:13;94044.25;;;17.17;100.00
11049;BME280;5577;42.706;23.160;2022-08-01T01:36:59;94041.19;;;17.22;100.00
11049;BME280;5577;42.706;23.160;2022-08-01T01:39:46;94039.22;;;17.30;100.00
11049;BME280;5577;42.706;23.160;2022-08-01T01:42:32;94025.06;;;17.36;100.00
11049;BME280;5577;42.706;23.160;2022-08-01T01:45:18;94026.22;;;17.39;100.00
11049;BME280;5577;42.706;23.160;2022-08-01T01:48:03;94036.13;;;17.38;100.00
11049;BME280;5577;42.706;23.160;2022-08-01T01:50:49;94029.25;;;17.41;100.00
11049;BME280;5577;42.706;23.160;2022-08-01T01:53:34;94030.03;;;17.45;100.00
11049;BME280;5577;42.706;23.160;2022-08-01T01:56:20;94021.63;;;17.46;100.00
11049;BME280;5577;42.706;23.160;2022-08-01T01:59:05;94019.72;;;17.43;100.00
11049;BME280;5577;42.706;23.160;2022-08-01T02:01:51;94017.78;;;17.44;100.00
11049;BME280;5577;42.706;23.160;2022-08-01T02:04:39;94017.78;;;17.44;100.00
11049;BME280;5577;42.706;23.160;2022-08-01T02:07:24;93985.03;;;17.18;100.00
11049;BME280;5577;42.706;23.160;2022-08-01T02:10:10;94017.78;;;17.37;100.00
11049;BME280;5577;42.706;23.160;2022-08-01T02:12:56;94028.88;;;17.39;100.00
11049;BME280;5577;42.706;23.160;2022-08-01T02:15:41;94001.81;;;17.26;100.00
11049;BME280;5577;42.706;23.160;2022-08-01T02:18:25;94018.97;;;17.36;100.00
11049;BME280;5577;42.706;23.160;2022-08-01T02:21:12;94024.34;;;17.32;100.00
11049;BME280;5577;42.706;23.160;2022-08-01T02:24:05;94015.16;;;17.30;100.00
11049;BME280;5577;42.706;23.160;2022-08-01T02:26:53;94010.22;;;17.25;100.00
11049;BME280;5577;42.706;23.160;2022-08-01T02:29:46;94015.59;;;17.17;100.00
11049;BME280;5577;42.706;23.160;2022-08-01T02:35:23;93987.44;;;16.92;100.00
11049;BME280;5577;42.706;23.160;2022-08-01T02:38:10;94012.97;;;17.07;100.00
11049;BME280;5577;42.706;23.160;2022-08-01T02:40:58;94008.41;;;17.00;100.00
11049;BME280;5577;42.706;23.160;2022-08-01T02:43:47;94006.16;;;16.92;100.00
11049;BME280;5577;42.706;23.160;2022-08-01T02:46:39;94015.34;;;16.87;100.00
11049;BME280;5577;42.706;23.160;2022-08-01T02:49:25;94008.84;;;16.85;100.00
11049;BME280;5577;42.706;23.160;2022-08-01T02:52:13;93968.09;;;16.53;100.00
11049;BME280;5577;42.706;23.160;2022-08-01T02:54:58;94005.06;;;16.79;100.00
11049;BME280;5577;42.706;23.160;2022-08-01T02:57:44;94000.47;;;16.83;100.00
11049;BME280;5577;42.706;23.160;2022-08-01T03:00:31;94010.75;;;16.88;100.00
11049;BME280;5577;42.706;23.160;2022-08-01T03:03:16;94006.56;;;16.87;100.00
11049;BME280;5577;42.706;23.160;2022-08-01T03:06:01;94005.81;;;16.86;100.00
11049;BME280;5577;42.706;23.160;2022-08-01T03:08:47;94006.19;;;16.85;100.00
11049;BME280;5577;42.706;23.160;2022-08-01T03:11:33;94008.13;;;16.81;100.00
11049;BME280;5577;42.706;23.160;2022-08-01T03:14:20;94005.84;;;16.76;100.00
11049;BME280;5577;42.706;23.160;2022-08-01T03:17:08;93994.41;;;16.65;100.00
11049;BME280;5577;42.706;23.160;2022-08-01T03:19:53;93992.88;;;16.71;100.00
11049;BME280;5577;42.706;23.160;2022-08-01T03:22:38;94002.81;;;16.67;100.00
11049;BME280;5577;42.706;23.160;2022-08-01T03:25:25;94005.47;;;16.67;100.00
11049;BME280;5577;42.706;23.160;2022-08-01T03:28:13;94016.53;;;16.76;100.00
11049;BME280;5577;42.706;23.160;2022-08-01T03:30:58;94004.31;;;16.78;100.00
11049;BME280;5577;42.706;23.160;2022-08-01T03:33:44;94017.66;;;16.82;100.00
11049;BME280;5577;42.706;23.160;2022-08-01T03:36:28;94008.84;;;16.88;100.00
11049;BME280;5577;42.706;23.160;2022-08-01T03:39:16;94017.25;;;16.90;100.00
11049;BME280;5577;42.706;23.160;2022-08-01T03:42:08;94004.25;;;16.89;100.00
11049;BME280;5577;42.706;23.160;2022-08-01T03:44:59;94020.25;;;17.03;100.00
11049;BME280;5577;42.706;23.160;2022-08-01T03:47:43;94011.09;;;17.04;100.00
11049;BME280;5577;42.706;23.160;2022-08-01T03:50:30;94012.59;;;17.01;100.00
11049;BME280;5577;42.706;23.160;2022-08-01T03:53:25;94012.97;;;17.10;100.00
11049;BME280;5577;42.706;23.160;2022-08-01T03:56:12;94015.19;;;17.23;100.00
11049;BME280;5577;42.706;23.160;2022-08-01T03:59:01;94010.19;;;17.32;100.00
11049;BME280;5577;42.706;23.160;2022-08-01T04:01:47;94018.19;;;17.39;100.00
11049;BME280;5577;42.706;23.160;2022-08-01T04:04:32;94015.47;;;17.49;100.00
11049;BME280;5577;42.706;23.160;2022-08-01T04:07:31;94008.50;;;17.62;100.00
11049;BME280;5577;42.706;23.160;2022-08-01T04:10:16;94019.50;;;17.78;100.00
11049;BME280;5577;42.706;23.160;2022-08-01T04:13:00;93984.81;;;17.61;100.00
11049;BME280;5577;42.706;23.160;2022-08-01T04:15:44;94023.59;;;17.90;100.00
11049;BME280;5577;42.706;23.160;2022-08-01T04:18:28;94012.09;;;17.96;100.00
11049;BME280;5577;42.706;23.160;2022-08-01T04:21:13;94019.34;;;17.99;100.00
11049;BME280;5577;42.706;23.160;2022-08-01T04:24:03;94011.28;;;18.03;100.00
11049;BME280;5577;42.706;23.160;2022-08-01T04:26:50;94023.75;;;18.20;100.00
11049;BME280;5577;42.706;23.160;2022-08-01T04:29:36;94016.84;;;18.26;100.00
11049;BME280;5577;42.706;23.160;2022-08-01T04:32:22;94006.84;;;18.26;100.00
11049;BME280;5577;42.706;23.160;2022-08-01T04:35:08;94019.03;;;18.41;100.00
11049;BME280;5577;42.706;23.160;2022-08-01T04:37:55;94027.38;;;18.47;100.00
11049;BME280;5577;42.706;23.160;2022-08-01T04:40:44;94003.59;;;18.49;100.00
11049;BME280;5577;42.706;23.160;2022-08-01T04:43:31;94017.28;;;18.61;100.00
11049;BME280;5577;42.706;23.160;2022-08-01T04:46:16;93992.16;;;18.48;100.00
11049;BME280;5577;42.706;23.160;2022-08-01T04:49:01;94027.81;;;18.79;100.00
11049;BME280;5577;42.706;23.160;2022-08-01T04:51:50;94027.31;;;18.91;100.00
11049;BME280;5577;42.706;23.160;2022-08-01T04:54:35;94026.03;;;19.02;100.00
11049;BME280;5577;42.706;23.160;2022-08-01T04:57:22;94026.34;;;19.08;100.00
11049;BME280;5577;42.706;23.160;2022-08-01T05:00:08;94019.31;;;19.17;100.00
11049;BME280;5577;42.706;23.160;2022-08-01T05:02:52;94022.41;;;19.16;100.00
11049;BME280;5577;42.706;23.160;2022-08-01T05:05:36;94010.94;;;19.15;100.00
11049;BME280;5577;42.706;23.160;2022-08-01T05:08:20;94023.50;;;19.25;100.00
11049;BME280;5577;42.706;23.160;2022-08-01T05:11:04;94015.28;;;19.36;100.00
11049;BME280;5577;42.706;23.160;2022-08-01T05:13:48;94003.38;;;19.37;100.00
11049;BME280;5577;42.706;23.160;2022-08-01T05:16:32;94020.34;;;19.60;100.00
11049;BME280;5577;42.706;23.160;2022-08-01T05:19:16;94015.97;;;19.70;99.75
11049;BME280;5577;42.706;23.160;2022-08-01T05:22:01;94013.19;;;19.77;94.57
11049;BME280;5577;42.706;23.160;2022-08-01T05:24:48;94011.03;;;19.92;91.08
11049;BME280;5577;42.706;23.160;2022-08-01T05:27:32;94018.06;;;20.09;88.10
11049;BME280;5577;42.706;23.160;2022-08-01T05:30:16;94018.34;;;20.18;80.98
11049;BME280;5577;42.706;23.160;2022-08-01T05:33:00;94023.94;;;20.27;75.85
11049;BME280;5577;42.706;23.160;2022-08-01T05:35:44;94026.47;;;20.37;75.35
11049;BME280;5577;42.706;23.160;2022-08-01T05:38:28;94019.41;;;20.47;76.76
11049;BME280;5577;42.706;23.160;2022-08-01T05:41:12;94026.03;;;20.62;79.55
11049;BME280;5577;42.706;23.160;2022-08-01T05:43:56;94026.41;;;20.64;73.42
11049;BME280;5577;42.706;23.160;2022-08-01T05:46:39;94022.41;;;20.72;75.12
11049;BME280;5577;42.706;23.160;2022-08-01T05:49:23;94031.81;;;20.83;76.74
11049;BME280;5577;42.706;23.160;2022-08-01T05:52:07;94030.13;;;20.93;81.04
11049;BME280;5577;42.706;23.160;2022-08-01T05:54:51;94008.00;;;20.82;76.91
11049;BME280;5577;42.706;23.160;2022-08-01T05:57:35;94034.81;;;21.08;72.14
11049;BME280;5577;42.706;23.160;2022-08-01T06:00:20;94034.78;;;21.12;72.00
11049;BME280;5577;42.706;23.160;2022-08-01T06:03:04;94011.56;;;20.98;68.98
11049;BME280;5577;42.706;23.160;2022-08-01T06:05:50;94039.16;;;21.22;69.62
11049;BME280;5577;42.706;23.160;2022-08-01T06:08:34;94041.25;;;21.34;69.46
11049;BME280;5577;42.706;23.160;2022-08-01T06:11:18;93995.53;;;21.11;68.82
11049;BME280;5577;42.706;23.160;2022-08-01T06:14:02;94046.22;;;21.35;66.04
11049;BME280;5577;42.706;23.160;2022-08-01T06:16:46;94037.03;;;21.33;64.17
11049;BME280;5577;42.706;23.160;2022-08-01T06:19:30;94047.72;;;21.36;64.71
11049;BME280;5577;42.706;23.160;2022-08-01T06:22:14;94039.94;;;21.42;65.47
11049;BME280;5577;42.706;23.160;2022-08-01T06:24:58;94040.13;;;21.51;64.75
11049;BME280;5577;42.706;23.160;2022-08-01T06:27:41;94025.06;;;21.53;64.81
11049;BME280;5577;42.706;23.160;2022-08-01T06:30:26;94036.59;;;21.54;64.44
11049;BME280;5577;42.706;23.160;2022-08-01T06:33:10;94024.75;;;21.67;66.71
11049;BME280;5577;42.706;23.160;2022-08-01T06:35:54;94029.47;;;21.83;68.30
11049;BME280;5577;42.706;23.160;2022-08-01T06:38:38;94030.66;;;21.98;66.38
11049;BME280;5577;42.706;23.160;2022-08-01T06:41:22;94025.00;;;21.92;65.17
11049;BME280;5577;42.706;23.160;2022-08-01T06:44:07;94030.75;;;21.94;65.74
11049;BME280;5577;42.706;23.160;2022-08-01T06:46:51;94024.00;;;22.02;67.96
11049;BME280;5577;42.706;23.160;2022-08-01T06:49:35;94022.50;;;22.01;66.65
11049;BME280;5577;42.706;23.160;2022-08-01T06:52:19;94015.34;;;22.11;65.86
11049;BME280;5577;42.706;23.160;2022-08-01T06:55:04;94013.06;;;22.09;67.18
11049;BME280;5577;42.706;23.160;2022-08-01T06:57:50;94011.28;;;22.19;66.36
11049;BME280;5577;42.706;23.160;2022-08-01T07:00:34;93995.88;;;22.19;67.08
11049;BME280;5577;42.706;23.160;2022-08-01T07:03:18;93999.97;;;22.40;68.56
11049;BME280;5577;42.706;23.160;2022-08-01T07:06:02;94000.84;;;22.53;69.35
11049;BME280;5577;42.706;23.160;2022-08-01T07:08:46;94005.94;;;22.64;66.65
11049;BME280;5577;42.706;23.160;2022-08-01T07:11:30;94008.09;;;22.56;64.56
11049;BME280;5577;42.706;23.160;2022-08-01T07:14:14;93998.97;;;22.66;67.82
11049;BME280;5577;42.706;23.160;2022-08-01T07:16:58;93975.72;;;22.56;65.99
11049;BME280;5577;42.706;23.160;2022-08-01T07:19:42;94009.91;;;22.75;64.92
11049;BME280;5577;42.706;23.160;2022-08-01T07:22:26;94001.09;;;22.87;65.81
11049;BME280;5577;42.706;23.160;2022-08-01T07:25:10;94012.63;;;23.04;64.35
11049;BME280;5577;42.706;23.160;2022-08-01T07:27:54;94009.19;;;23.16;63.88
11049;BME280;5577;42.706;23.160;2022-08-01T07:30:38;94007.81;;;23.24;62.59
11049;BME280;5577;42.706;23.160;2022-08-01T07:33:25;94013.22;;;23.24;61.70
11049;BME280;5577;42.706;23.160;2022-08-01T07:36:09;93998.34;;;23.32;63.02
11049;BME280;5577;42.706;23.160;2022-08-01T07:38:53;93991.97;;;23.38;60.75
11049;BME280;5577;42.706;23.160;2022-08-01T07:41:37;94004.22;;;23.43;60.96
11049;BME280;5577;42.706;23.160;2022-08-01T07:44:21;94010.25;;;23.47;61.35
11049;BME280;5577;42.706;23.160;2022-08-01T07:47:05;94004.09;;;23.59;61.29
11049;BME280;5577;42.706;23.160;2022-08-01T07:49:49;93999.13;;;23.57;61.57
11049;BME280;5577;42.706;23.160;2022-08-01T07:52:33;94001.84;;;23.57;60.14
11049;BME280;5577;42.706;23.160;2022-08-01T07:55:17;93999.34;;;23.50;60.11
11049;BME280;5577;42.706;23.160;2022-08-01T07:58:01;94006.59;;;23.53;61.76
11049;BME280;5577;42.706;23.160;2022-08-01T08:00:45;93965.59;;;23.30;60.27
11049;BME280;5577;42.706;23.160;2022-08-01T08:03:29;94003.38;;;23.58;59.40
11049;BME280;5577;42.706;23.160;2022-08-01T08:06:13;94011.56;;;23.67;57.94
11049;BME280;5577;42.706;23.160;2022-08-01T08:08:57;94012.13;;;23.62;58.50
11049;BME280;5577;42.706;23.160;2022-08-01T08:11:44;94006.84;;;23.84;58.94
11049;BME280;5577;42.706;23.160;2022-08-01T08:14:28;94018.66;;;24.02;59.27
11049;BME280;5577;42.706;23.160;2022-08-01T08:17:12;94003.72;;;24.10;59.91
11049;BME280;5577;42.706;23.160;2022-08-01T08:19:56;93997.13;;;24.24;60.80
11049;BME280;5577;42.706;23.160;2022-08-01T08:22:40;93966.38;;;24.18;61.42
11049;BME280;5577;42.706;23.160;2022-08-01T08:25:25;94011.03;;;24.47;57.61
11049;BME280;5577;42.706;23.160;2022-08-01T08:28:09;93997.09;;;24.36;55.98
11049;BME280;5577;42.706;23.160;2022-08-01T08:30:53;94013.06;;;24.56;56.98
11049;BME280;5577;42.706;23.160;2022-08-01T08:33:39;94009.28;;;24.53;55.56
11049;BME280;5577;42.706;23.160;2022-08-01T08:36:23;94006.25;;;24.51;54.92
11049;BME280;5577;42.706;23.160;2022-08-01T08:39:07;93998.56;;;24.50;52.23
11049;BME280;5577;42.706;23.160;2022-08-01T08:41:50;94002.22;;;24.68;53.60
11049;BME280;5577;42.706;23.160;2022-08-01T08:44:34;94005.09;;;24.86;53.11
11049;BME280;5577;42.706;23.160;2022-08-01T08:47:19;94012.28;;;24.80;52.72
11049;BME280;5577;42.706;23.160;2022-08-01T08:50:04;94006.38;;;24.94;55.53
11049;BME280;5577;42.706;23.160;2022-08-01T08:52:49;94003.91;;;25.09;54.77
11049;BME280;5577;42.706;23.160;2022-08-01T08:55:35;94007.38;;;25.10;53.40
11049;BME280;5577;42.706;23.160;2022-08-01T08:58:19;93989.41;;;25.25;52.17
11049;BME280;5577;42.706;23.160;2022-08-01T09:01:07;94012.00;;;25.43;53.33
11049;BME280;5577;42.706;23.160;2022-08-01T09:03:53;93995.75;;;25.74;53.55
11049;BME280;5577;42.706;23.160;2022-08-01T09:06:37;93994.09;;;25.46;54.08
11049;BME280;5577;42.706;23.160;2022-08-01T09:09:22;93988.31;;;25.56;51.85
11049;BME280;5577;42.706;23.160;2022-08-01T09:12:07;93999.88;;;25.87;52.97
11049;BME280;5577;42.706;23.160;2022-08-01T09:14:51;93990.94;;;25.99;51.51
11049;BME280;5577;42.706;23.160;2022-08-01T09:17:41;93986.16;;;26.21;49.84
11049;BME280;5577;42.706;23.160;2022-08-01T09:20:25;93993.41;;;26.24;52.11
11049;BME280;5577;42.706;23.160;2022-08-01T09:23:39;93996.53;;;25.83;52.61
11049;BME280;5577;42.706;23.160;2022-08-01T09:26:35;93975.69;;;25.19;52.50
11049;BME280;5577;42.706;23.160;2022-08-01T09:29:29;93973.66;;;24.67;53.22
11049;BME280;5577;42.706;23.160;2022-08-01T09:32:13;93975.31;;;24.52;54.63
11049;BME280;5577;42.706;23.160;2022-08-01T09:35:02;93990.91;;;24.36;56.90
11049;BME280;5577;42.706;23.160;2022-08-01T09:38:23;93979.94;;;24.98;57.17
11049;BME280;5577;42.706;23.160;2022-08-01T09:41:07;93985.78;;;25.71;55.57
11049;BME280;5577;42.706;23.160;2022-08-01T09:43:51;93963.56;;;25.85;52.26
11049;BME280;5577;42.706;23.160;2022-08-01T09:46:35;93979.44;;;26.44;52.18
11049;BME280;5577;42.706;23.160;2022-08-01T09:49:37;93982.66;;;26.69;51.13
11049;BME280;5577;42.706;23.160;2022-08-01T09:52:24;93980.25;;;26.62;50.09
11049;BME280;5577;42.706;23.160;2022-08-01T09:55:09;93985.06;;;26.85;51.62
11049;BME280;5577;42.706;23.160;2022-08-01T09:57:56;93980.72;;;27.06;49.48
11049;BME280;5577;42.706;23.160;2022-08-01T10:00:57;93990.66;;;26.73;49.17
11049;BME280;5577;42.706;23.160;2022-08-01T10:03:43;93987.75;;;26.40;48.15
11049;BME280;5577;42.706;23.160;2022-08-01T10:06:27;93982.66;;;26.69;47.33
11049;BME280;5577;42.706;23.160;2022-08-01T10:09:12;93976.03;;;27.06;46.36
11049;BME280;5577;42.706;23.160;2022-08-01T10:11:59;93970.00;;;27.29;50.57
11049;BME280;5577;42.706;23.160;2022-08-01T10:14:45;93979.06;;;27.35;45.38
11049;BME280;5577;42.706;23.160;2022-08-01T10:17:30;93981.47;;;27.33;45.47
11049;BME280;5577;42.706;23.160;2022-08-01T10:20:14;93964.50;;;27.57;46.23
11049;BME280;5577;42.706;23.160;2022-08-01T10:23:01;93959.66;;;27.61;44.88
11049;BME280;5577;42.706;23.160;2022-08-01T10:25:47;93954.34;;;27.57;46.04
11049;BME280;5577;42.706;23.160;2022-08-01T10:28:35;93949.63;;;27.85;45.92
11049;BME280;5577;42.706;23.160;2022-08-01T10:31:19;93959.22;;;28.27;43.21
11049;BME280;5577;42.706;23.160;2022-08-01T10:34:04;93955.53;;;28.39;42.74
11049;BME280;5577;42.706;23.160;2022-08-01T10:36:48;93942.00;;;27.98;43.25
11049;BME280;5577;42.706;23.160;2022-08-01T10:39:33;93962.25;;;27.55;44.83
11049;BME280;5577;42.706;23.160;2022-08-01T10:42:18;93955.50;;;27.05;45.97
11049;BME280;5577;42.706;23.160;2022-08-01T10:45:02;93950.19;;;26.39;47.45
11049;BME280;5577;42.706;23.160;2022-08-01T10:48:21;93952.44;;;26.49;45.47
11049;BME280;5577;42.706;23.160;2022-08-01T10:51:07;93942.78;;;27.20;46.85
11049;BME280;5577;42.706;23.160;2022-08-01T10:53:53;93953.31;;;27.64;45.31
11049;BME280;5577;42.706;23.160;2022-08-01T10:56:47;93950.66;;;27.18;45.77
11049;BME280;5577;42.706;23.160;2022-08-01T10:59:31;93954.59;;;26.63;46.99
11049;BME280;5577;42.706;23.160;2022-08-01T11:02:33;93956.44;;;26.75;46.70
11049;BME280;5577;42.706;23.160;2022-08-01T11:05:20;93939.66;;;27.13;46.61
11049;BME280;5577;42.706;23.160;2022-08-01T11:08:22;93946.06;;;28.02;46.38
11049;BME280;5577;42.706;23.160;2022-08-01T11:11:07;93935.47;;;28.60;45.96
11049;BME280;5577;42.706;23.160;2022-08-01T11:16:41;93938.09;;;28.22;45.62
11049;BME280;5577;42.706;23.160;2022-08-01T11:28:36;93898.47;;;26.69;46.79
11049;BME280;5577;42.706;23.160;2022-08-01T11:34:05;93926.09;;;26.95;46.89
11049;BME280;5577;42.706;23.160;2022-08-01T11:37:25;93934.66;;;27.02;47.07
11049;BME280;5577;42.706;23.160;2022-08-01T11:43:18;93927.91;;;26.89;46.93
11049;BME280;5577;42.706;23.160;2022-08-01T11:46:02;93922.78;;;26.82;47.28
11049;BME280;5577;42.706;23.160;2022-08-01T11:54:57;93920.16;;;26.96;46.36
11049;BME280;5577;42.706;23.160;2022-08-01T11:57:41;93927.69;;;27.37;48.79
11049;BME280;5577;42.706;23.160;2022-08-01T12:00:26;93780.50;;;26.70;45.87
11049;BME280;5577;42.706;23.160;2022-08-01T12:03:09;93913.78;;;27.77;45.01
11049;BME280;5577;42.706;23.160;2022-08-01T12:05:54;93920.91;;;27.15;48.31
11049;BME280;5577;42.706;23.160;2022-08-01T12:08:38;93913.38;;;27.70;47.94
11049;BME280;5577;42.706;23.160;2022-08-01T12:11:23;93917.66;;;27.52;45.87
11049;BME280;5577;42.706;23.160;2022-08-01T12:14:07;93910.41;;;27.58;45.88
11049;BME280;5577;42.706;23.160;2022-08-01T12:16:52;93911.88;;;28.34;45.25
11049;BME280;5577;42.706;23.160;2022-08-01T12:19:36;93907.56;;;28.42;46.27
11049;BME280;5577;42.706;23.160;2022-08-01T12:22:23;93913.72;;;28.51;44.96
11049;BME280;5577;42.706;23.160;2022-08-01T12:25:13;93915.38;;;28.72;44.88
11049;BME280;5577;42.706;23.160;2022-08-01T12:28:03;93902.91;;;28.95;43.65
11049;BME280;5577;42.706;23.160;2022-08-01T12:30:48;93914.84;;;28.97;43.01
11049;BME280;5577;42.706;23.160;2022-08-01T12:33:33;93899.34;;;28.89;41.78
11049;BME280;5577;42.706;23.160;2022-08-01T12:36:27;93910.47;;;28.62;42.60
11049;BME280;5577;42.706;23.160;2022-08-01T12:39:12;93902.63;;;28.78;41.40
11049;BME280;5577;42.706;23.160;2022-08-01T12:41:55;93907.72;;;28.85;43.76
11049;BME280;5577;42.706;23.160;2022-08-01T12:44:41;93895.97;;;28.94;43.35
11049;BME280;5577;42.706;23.160;2022-08-01T12:47:26;93898.44;;;29.21;42.66
11049;BME280;5577;42.706;23.160;2022-08-01T12:50:14;93900.06;;;29.27;42.90
11049;BME280;5577;42.706;23.160;2022-08-01T12:52:59;93891.69;;;29.45;42.90
11049;BME280;5577;42.706;23.160;2022-08-01T12:55:53;93888.53;;;28.94;41.57
11049;BME280;5577;42.706;23.160;2022-08-01T12:58:38;93893.09;;;29.12;41.95
11049;BME280;5577;42.706;23.160;2022-08-01T13:01:26;93874.19;;;29.08;42.12
11049;BME280;5577;42.706;23.160;2022-08-01T13:04:11;93896.84;;;29.43;42.15
11049;BME280;5577;42.706;23.160;2022-08-01T13:06:54;93893.00;;;29.50;41.31
11049;BME280;5577;42.706;23.160;2022-08-01T13:09:49;93888.25;;;28.92;42.18
11049;BME280;5577;42.706;23.160;2022-08-01T13:12:34;93898.78;;;28.47;42.24
11049;BME280;5577;42.706;23.160;2022-08-01T13:15:27;93892.47;;;28.93;42.05
11049;BME280;5577;42.706;23.160;2022-08-01T13:18:30;93896.03;;;29.37;42.32
11049;BME280;5577;42.706;23.160;2022-08-01T13:21:22;93885.78;;;28.65;42.37
11049;BME280;5577;42.706;23.160;2022-08-01T13:24:11;93894.13;;;28.15;44.46
11049;BME280;5577;42.706;23.160;2022-08-01T13:26:57;93888.41;;;28.36;44.02
11049;BME280;5577;42.706;23.160;2022-08-01T13:29:44;93889.41;;;28.48;42.48
11049;BME280;5577;42.706;23.160;2022-08-01T13:32:29;93886.25;;;28.40;43.71
11049;BME280;5577;42.706;23.160;2022-08-01T13:35:13;93882.63;;;28.20;44.10
11049;BME280;5577;42.706;23.160;2022-08-01T13:37:57;93887.81;;;28.56;43.18
11049;BME280;5577;42.706;23.160;2022-08-01T13:40:41;93879.47;;;28.36;42.84
11049;BME280;5577;42.706;23.160;2022-08-01T13:43:25;93877.44;;;28.83;44.02
11049;BME280;5577;42.706;23.160;2022-08-01T13:46:09;93879.19;;;29.10;42.03
11049;BME280;5577;42.706;23.160;2022-08-01T13:48:53;93885.56;;;29.21;41.60
11049;BME280;5577;42.706;23.160;2022-08-01T13:51:38;93881.44;;;29.11;42.08
11049;BME280;5577;42.706;23.160;2022-08-01T13:54:22;93869.69;;;29.20;41.50
11049;BME280;5577;42.706;23.160;2022-08-01T13:57:07;93880.72;;;28.87;42.47
11049;BME280;5577;42.706;23.160;2022-08-01T13:59:52;93882.72;;;28.87;43.07
11049;BME280;5577;42.706;23.160;2022-08-01T14:02:35;93875.75;;;28.86;43.63
11049;BME280;5577;42.706;23.160;2022-08-01T14:05:19;93879.19;;;28.72;42.34
11049;BME280;5577;42.706;23.160;2022-08-01T14:08:04;93865.97;;;28.79;44.32
11049;BME280;5577;42.706;23.160;2022-08-01T14:10:48;93865.19;;;29.02;43.22
11049;BME280;5577;42.706;23.160;2022-08-01T14:13:32;93869.88;;;29.16;41.95
11049;BME280;5577;42.706;23.160;2022-08-01T14:16:17;93862.72;;;28.90;43.06
11049;BME280;5577;42.706;23.160;2022-08-01T14:19:01;93868.16;;;28.90;42.90
11049;BME280;5577;42.706;23.160;2022-08-01T14:21:45;93866.75;;;28.56;43.06
11049;BME280;5577;42.706;23.160;2022-08-01T14:24:29;93871.03;;;28.72;42.56
11049;BME280;5577;42.706;23.160;2022-08-01T14:27:13;93870.13;;;28.89;42.77
11049;BME280;5577;42.706;23.160;2022-08-01T14:29:57;93863.81;;;28.83;42.65
11049;BME280;5577;42.706;23.160;2022-08-01T14:32:41;93867.19;;;28.78;43.06
11049;BME280;5577;42.706;23.160;2022-08-01T14:35:25;93847.28;;;28.87;43.20
11049;BME280;5577;42.706;23.160;2022-08-01T14:38:09;93866.28;;;28.81;42.06
11049;BME280;5577;42.706;23.160;2022-08-01T14:40:53;93858.56;;;28.80;41.70
11049;BME280;5577;42.706;23.160;2022-08-01T14:43:38;93863.50;;;28.67;41.76
11049;BME280;5577;42.706;23.160;2022-08-01T14:46:22;93868.00;;;28.55;41.81
11049;BME280;5577;42.706;23.160;2022-08-01T14:49:06;93864.34;;;28.58;41.69
11049;BME280;5577;42.706;23.160;2022-08-01T14:51:50;93864.19;;;28.62;42.46
11049;BME280;5577;42.706;23.160;2022-08-01T14:54:34;93839.16;;;28.25;43.67
11049;BME280;5577;42.706;23.160;2022-08-01T14:57:18;93872.53;;;28.35;41.97
11049;BME280;5577;42.706;23.160;2022-08-01T15:00:05;93878.13;;;28.31;43.02
11049;BME280;5577;42.706;23.160;2022-08-01T15:02:50;93871.38;;;28.27;42.47
11049;BME280;5577;42.706;23.160;2022-08-01T15:05:34;93879.66;;;28.32;42.45
11049;BME280;5577;42.706;23.160;2022-08-01T15:08:19;93875.13;;;28.29;42.31